sensor_id;sensor_type;location;lat;lon;timestamp;P1;durP1;ratioP1;P2;durP2;ratioP2
17330;SDS011;8783;52.448;4.638;2023-10-19T00:00:32;3.15;;;1.75;;
17330;SDS011;8783;52.448;4.638;2023-10-19T00:02:59;1.65;;;1.40;;
17330;SDS011;8783;52.448;4.638;2023-10-19T00:05:31;2.33;;;1.42;;
17330;SDS011;8783;52.448;4.638;2023-10-19T00:08:04;1.83;;;1.27;;
17330;SDS011;8783;52.448;4.638;2023-10-19T00:10:43;2.42;;;1.58;;
17330;SDS011;8783;52.448;4.638;2023-10-19T00:13:12;4.07;;;1.50;;
17330;SDS011;8783;52.448;4.638;2023-10-19T00:15:39;1.80;;;1.42;;
17330;SDS011;8783;52.448;4.638;2023-10-19T00:18:05;1.83;;;1.27;;
17330;SDS011;8783;52.448;4.638;2023-10-19T00:20:44;1.85;;;1.20;;
17330;SDS011;8783;52.448;4.638;2023-10-19T00:23:18;2.70;;;1.60;;
17330;SDS011;8783;52.448;4.638;2023-10-19T00:25:56;1.98;;;1.48;;
17330;SDS011;8783;52.448;4.638;2023-10-19T00:28:30;2.35;;;1.55;;
17330;SDS011;8783;52.448;4.638;2023-10-19T00:31:00;2.05;;;1.40;;
17330;SDS011;8783;52.448;4.638;2023-10-19T00:33:29;1.88;;;1.30;;
17330;SDS011;8783;52.448;4.638;2023-10-19T00:35:59;2.22;;;1.40;;
17330;SDS011;8783;52.448;4.638;2023-10-19T00:38:34;2.60;;;1.50;;
17330;SDS011;8783;52.448;4.638;2023-10-19T00:41:00;1.80;;;1.33;;
17330;SDS011;8783;52.448;4.638;2023-10-19T00:43:36;2.80;;;1.40;;
17330;SDS011;8783;52.448;4.638;2023-10-19T00:46:07;1.60;;;1.13;;
17330;SDS011;8783;52.448;4.638;2023-10-19T00:48:57;2.20;;;1.30;;
17330;SDS011;8783;52.448;4.638;2023-10-19T00:51:37;2.33;;;1.30;;
17330;SDS011;8783;52.448;4.638;2023-10-19T00:54:27;1.92;;;1.25;;
17330;SDS011;8783;52.448;4.638;2023-10-19T00:57:02;1.98;;;1.38;;
17330;SDS011;8783;52.448;4.638;2023-10-19T00:59:39;2.55;;;1.60;;
17330;SDS011;8783;52.448;4.638;2023-10-19T01:02:19;1.98;;;1.30;;
17330;SDS011;8783;52.448;4.638;2023-10-19T01:04:54;1.95;;;1.23;;
17330;SDS011;8783;52.448;4.638;2023-10-19T01:07:24;2.10;;;1.30;;
17330;SDS011;8783;52.448;4.638;2023-10-19T01:10:10;2.03;;;1.27;;
17330;SDS011;8783;52.448;4.638;2023-10-19T01:12:53;1.63;;;1.10;;
17330;SDS011;8783;52.448;4.638;2023-10-19T01:15:21;1.55;;;1.08;;
17330;SDS011;8783;52.448;4.638;2023-10-19T01:17:53;1.98;;;1.30;;
17330;SDS011;8783;52.448;4.638;2023-10-19T01:20:24;2.20;;;1.30;;
17330;SDS011;8783;52.448;4.638;2023-10-19T01:28:08;1.67;;;1.10;;
17330;SDS011;8783;52.448;4.638;2023-10-19T01:30:37;2.08;;;1.10;;
17330;SDS011;8783;52.448;4.638;2023-10-19T01:33:04;1.17;;;0.90;;
17330;SDS011;8783;52.448;4.638;2023-10-19T01:35:34;1.50;;;1.00;;
17330;SDS011;8783;52.448;4.638;2023-10-19T01:38:28;1.92;;;1.10;;
17330;SDS011;8783;52.448;4.638;2023-10-19T01:40:56;1.27;;;1.02;;
17330;SDS011;8783;52.448;4.638;2023-10-19T01:43:26;1.85;;;1.25;;
17330;SDS011;8783;52.448;4.638;2023-10-19T01:45:58;1.98;;;1.13;;
17330;SDS011;8783;52.448;4.638;2023-10-19T01:48:29;1.40;;;1.15;;
17330;SDS011;8783;52.448;4.638;2023-10-19T01:51:02;1.48;;;1.10;;
17330;SDS011;8783;52.448;4.638;2023-10-19T01:53:31;1.38;;;1.20;;
17330;SDS011;8783;52.448;4.638;2023-10-19T01:56:01;1.67;;;1.20;;
17330;SDS011;8783;52.448;4.638;2023-10-19T01:58:30;1.42;;;0.90;;
17330;SDS011;8783;52.448;4.638;2023-10-19T02:01:01;1.30;;;0.98;;
17330;SDS011;8783;52.448;4.638;2023-10-19T02:03:32;1.95;;;1.10;;
17330;SDS011;8783;52.448;4.638;2023-10-19T02:05:58;1.70;;;1.08;;
17330;SDS011;8783;52.448;4.638;2023-10-19T02:08:25;1.80;;;1.08;;
17330;SDS011;8783;52.448;4.638;2023-10-19T02:10:52;1.48;;;1.00;;
17330;SDS011;8783;52.448;4.638;2023-10-19T02:13:19;1.63;;;0.95;;
17330;SDS011;8783;52.448;4.638;2023-10-19T02:15:44;1.98;;;0.98;;
17330;SDS011;8783;52.448;4.638;2023-10-19T02:18:10;1.73;;;0.95;;
17330;SDS011;8783;52.448;4.638;2023-10-19T02:20:36;1.63;;;1.10;;
17330;SDS011;8783;52.448;4.638;2023-10-19T02:23:06;1.48;;;0.95;;
17330;SDS011;8783;52.448;4.638;2023-10-19T02:25:34;1.35;;;1.20;;
17330;SDS011;8783;52.448;4.638;2023-10-19T02:28:05;1.20;;;0.93;;
17330;SDS011;8783;52.448;4.638;2023-10-19T02:30:34;1.08;;;0.98;;
17330;SDS011;8783;52.448;4.638;2023-10-19T02:33:00;1.33;;;1.00;;
17330;SDS011;8783;52.448;4.638;2023-10-19T02:35:28;2.08;;;0.90;;
17330;SDS011;8783;52.448;4.638;2023-10-19T02:37:53;1.30;;;1.02;;
17330;SDS011;8783;52.448;4.638;2023-10-19T02:40:19;1.00;;;0.80;;
17330;SDS011;8783;52.448;4.638;2023-10-19T02:42:48;1.38;;;1.02;;
17330;SDS011;8783;52.448;4.638;2023-10-19T02:45:18;1.38;;;0.90;;
17330;SDS011;8783;52.448;4.638;2023-10-19T02:47:45;1.35;;;0.93;;
17330;SDS011;8783;52.448;4.638;2023-10-19T02:50:11;1.20;;;1.00;;
17330;SDS011;8783;52.448;4.638;2023-10-19T02:52:41;1.88;;;0.93;;
17330;SDS011;8783;52.448;4.638;2023-10-19T02:55:08;0.80;;;0.70;;
17330;SDS011;8783;52.448;4.638;2023-10-19T02:57:35;1.08;;;0.90;;
17330;SDS011;8783;52.448;4.638;2023-10-19T03:00:02;1.45;;;0.95;;
17330;SDS011;8783;52.448;4.638;2023-10-19T03:02:35;1.02;;;0.82;;
17330;SDS011;8783;52.448;4.638;2023-10-19T03:08:23;1.48;;;1.15;;
17330;SDS011;8783;52.448;4.638;2023-10-19T03:10:51;1.58;;;1.00;;
17330;SDS011;8783;52.448;4.638;2023-10-19T03:13:29;1.15;;;0.80;;
17330;SDS011;8783;52.448;4.638;2023-10-19T03:15:57;1.20;;;0.77;;
17330;SDS011;8783;52.448;4.638;2023-10-19T03:18:25;1.27;;;0.80;;
17330;SDS011;8783;52.448;4.638;2023-10-19T03:20:51;1.00;;;0.85;;
17330;SDS011;8783;52.448;4.638;2023-10-19T03:23:17;1.27;;;0.90;;
17330;SDS011;8783;52.448;4.638;2023-10-19T03:25:42;1.02;;;0.88;;
17330;SDS011;8783;52.448;4.638;2023-10-19T03:28:37;1.42;;;0.98;;
17330;SDS011;8783;52.448;4.638;2023-10-19T03:31:03;1.15;;;0.80;;
17330;SDS011;8783;52.448;4.638;2023-10-19T03:33:29;1.40;;;0.70;;
17330;SDS011;8783;52.448;4.638;2023-10-19T03:35:55;1.17;;;0.93;;
17330;SDS011;8783;52.448;4.638;2023-10-19T03:38:21;1.20;;;1.00;;
17330;SDS011;8783;52.448;4.638;2023-10-19T03:40:48;1.23;;;0.90;;
17330;SDS011;8783;52.448;4.638;2023-10-19T03:43:17;1.58;;;1.00;;
17330;SDS011;8783;52.448;4.638;2023-10-19T03:45:46;1.65;;;0.90;;
17330;SDS011;8783;52.448;4.638;2023-10-19T03:48:20;1.00;;;0.90;;
17330;SDS011;8783;52.448;4.638;2023-10-19T03:50:51;1.35;;;0.95;;
17330;SDS011;8783;52.448;4.638;2023-10-19T03:53:25;1.45;;;0.60;;
17330;SDS011;8783;52.448;4.638;2023-10-19T03:55:50;0.73;;;0.63;;
17330;SDS011;8783;52.448;4.638;2023-10-19T03:58:17;0.70;;;0.70;;
17330;SDS011;8783;52.448;4.638;2023-10-19T04:00:45;1.65;;;0.90;;
17330;SDS011;8783;52.448;4.638;2023-10-19T04:03:11;0.75;;;0.60;;
17330;SDS011;8783;52.448;4.638;2023-10-19T04:05:37;0.80;;;0.70;;
17330;SDS011;8783;52.448;4.638;2023-10-19T04:08:04;1.23;;;0.75;;
17330;SDS011;8783;52.448;4.638;2023-10-19T04:10:39;1.00;;;0.70;;
17330;SDS011;8783;52.448;4.638;2023-10-19T04:13:09;1.02;;;0.88;;
17330;SDS011;8783;52.448;4.638;2023-10-19T04:15:36;1.10;;;0.75;;
17330;SDS011;8783;52.448;4.638;2023-10-19T04:18:05;0.75;;;0.73;;
17330;SDS011;8783;52.448;4.638;2023-10-19T04:20:37;1.30;;;0.80;;
17330;SDS011;8783;52.448;4.638;2023-10-19T04:23:15;1.23;;;0.80;;
17330;SDS011;8783;52.448;4.638;2023-10-19T04:25:41;1.23;;;0.70;;
17330;SDS011;8783;52.448;4.638;2023-10-19T04:28:07;1.20;;;0.85;;
17330;SDS011;8783;52.448;4.638;2023-10-19T04:30:34;0.90;;;0.80;;
17330;SDS011;8783;52.448;4.638;2023-10-19T04:33:02;1.70;;;0.70;;
17330;SDS011;8783;52.448;4.638;2023-10-19T04:35:27;2.00;;;1.00;;
17330;SDS011;8783;52.448;4.638;2023-10-19T04:37:59;1.23;;;0.75;;
17330;SDS011;8783;52.448;4.638;2023-10-19T04:40:24;1.38;;;0.80;;
17330;SDS011;8783;52.448;4.638;2023-10-19T04:42:51;0.82;;;0.70;;
17330;SDS011;8783;52.448;4.638;2023-10-19T04:45:30;1.17;;;0.80;;
17330;SDS011;8783;52.448;4.638;2023-10-19T04:47:59;0.70;;;0.70;;
17330;SDS011;8783;52.448;4.638;2023-10-19T04:50:24;0.70;;;0.70;;
17330;SDS011;8783;52.448;4.638;2023-10-19T04:52:50;0.73;;;0.68;;
17330;SDS011;8783;52.448;4.638;2023-10-19T04:55:21;0.90;;;0.65;;
17330;SDS011;8783;52.448;4.638;2023-10-19T04:57:47;0.85;;;0.65;;
17330;SDS011;8783;52.448;4.638;2023-10-19T05:00:13;0.75;;;0.70;;
17330;SDS011;8783;52.448;4.638;2023-10-19T05:02:42;0.60;;;0.60;;
17330;SDS011;8783;52.448;4.638;2023-10-19T05:05:08;0.90;;;0.68;;
17330;SDS011;8783;52.448;4.638;2023-10-19T05:07:33;1.00;;;0.82;;
17330;SDS011;8783;52.448;4.638;2023-10-19T05:09:59;2.65;;;0.70;;
17330;SDS011;8783;52.448;4.638;2023-10-19T05:12:25;1.48;;;0.70;;
17330;SDS011;8783;52.448;4.638;2023-10-19T05:14:50;1.13;;;0.93;;
17330;SDS011;8783;52.448;4.638;2023-10-19T05:17:16;0.90;;;0.60;;
17330;SDS011;8783;52.448;4.638;2023-10-19T05:19:41;1.50;;;0.70;;
17330;SDS011;8783;52.448;4.638;2023-10-19T05:22:08;1.15;;;0.70;;
17330;SDS011;8783;52.448;4.638;2023-10-19T05:24:38;0.85;;;0.80;;
17330;SDS011;8783;52.448;4.638;2023-10-19T05:27:03;0.93;;;0.70;;
17330;SDS011;8783;52.448;4.638;2023-10-19T05:29:32;0.98;;;0.60;;
17330;SDS011;8783;52.448;4.638;2023-10-19T05:31:58;2.25;;;0.70;;
17330;SDS011;8783;52.448;4.638;2023-10-19T05:34:24;1.27;;;0.73;;
17330;SDS011;8783;52.448;4.638;2023-10-19T05:36:52;0.60;;;0.60;;
17330;SDS011;8783;52.448;4.638;2023-10-19T05:39:19;0.75;;;0.63;;
17330;SDS011;8783;52.448;4.638;2023-10-19T05:41:45;0.60;;;0.57;;
17330;SDS011;8783;52.448;4.638;2023-10-19T05:44:11;1.48;;;0.80;;
17330;SDS011;8783;52.448;4.638;2023-10-19T05:46:36;1.35;;;0.70;;
17330;SDS011;8783;52.448;4.638;2023-10-19T05:49:03;0.70;;;0.52;;
17330;SDS011;8783;52.448;4.638;2023-10-19T05:51:31;0.85;;;0.60;;
17330;SDS011;8783;52.448;4.638;2023-10-19T05:53:57;1.55;;;0.65;;
17330;SDS011;8783;52.448;4.638;2023-10-19T05:56:31;0.70;;;0.63;;
17330;SDS011;8783;52.448;4.638;2023-10-19T05:58:59;1.10;;;0.77;;
17330;SDS011;8783;52.448;4.638;2023-10-19T06:01:26;0.50;;;0.50;;
17330;SDS011;8783;52.448;4.638;2023-10-19T06:03:51;1.17;;;0.57;;
17330;SDS011;8783;52.448;4.638;2023-10-19T06:06:17;0.95;;;0.70;;
17330;SDS011;8783;52.448;4.638;2023-10-19T06:08:44;1.00;;;0.70;;
17330;SDS011;8783;52.448;4.638;2023-10-19T06:11:10;0.68;;;0.50;;
17330;SDS011;8783;52.448;4.638;2023-10-19T06:13:36;1.17;;;0.80;;
17330;SDS011;8783;52.448;4.638;2023-10-19T06:16:01;0.88;;;0.68;;
17330;SDS011;8783;52.448;4.638;2023-10-19T06:18:27;0.60;;;0.57;;
17330;SDS011;8783;52.448;4.638;2023-10-19T06:20:54;0.80;;;0.50;;
17330;SDS011;8783;52.448;4.638;2023-10-19T06:23:20;1.00;;;0.50;;
17330;SDS011;8783;52.448;4.638;2023-10-19T06:25:45;0.73;;;0.60;;
17330;SDS011;8783;52.448;4.638;2023-10-19T06:28:11;1.90;;;0.65;;
17330;SDS011;8783;52.448;4.638;2023-10-19T06:30:37;0.70;;;0.57;;
17330;SDS011;8783;52.448;4.638;2023-10-19T06:33:05;0.70;;;0.60;;
17330;SDS011;8783;52.448;4.638;2023-10-19T06:35:31;1.13;;;0.70;;
17330;SDS011;8783;52.448;4.638;2023-10-19T06:37:58;0.80;;;0.57;;
17330;SDS011;8783;52.448;4.638;2023-10-19T06:40:25;1.35;;;0.63;;
17330;SDS011;8783;52.448;4.638;2023-10-19T06:42:54;1.55;;;0.60;;
17330;SDS011;8783;52.448;4.638;2023-10-19T06:45:24;0.73;;;0.50;;
17330;SDS011;8783;52.448;4.638;2023-10-19T06:47:55;0.70;;;0.50;;
17330;SDS011;8783;52.448;4.638;2023-10-19T06:50:21;1.05;;;0.55;;
17330;SDS011;8783;52.448;4.638;2023-10-19T06:52:48;0.68;;;0.60;;
17330;SDS011;8783;52.448;4.638;2023-10-19T06:55:15;0.65;;;0.60;;
17330;SDS011;8783;52.448;4.638;2023-10-19T06:57:54;0.77;;;0.70;;
17330;SDS011;8783;52.448;4.638;2023-10-19T07:00:24;1.00;;;0.70;;
17330;SDS011;8783;52.448;4.638;2023-10-19T07:02:54;1.25;;;0.60;;
17330;SDS011;8783;52.448;4.638;2023-10-19T07:05:21;0.95;;;0.57;;
17330;SDS011;8783;52.448;4.638;2023-10-19T07:07:49;0.60;;;0.55;;
17330;SDS011;8783;52.448;4.638;2023-10-19T07:10:17;1.17;;;0.60;;
17330;SDS011;8783;52.448;4.638;2023-10-19T07:12:44;1.00;;;0.50;;
17330;SDS011;8783;52.448;4.638;2023-10-19T07:15:12;1.52;;;0.70;;
17330;SDS011;8783;52.448;4.638;2023-10-19T07:17:44;0.80;;;0.70;;
17330;SDS011;8783;52.448;4.638;2023-10-19T07:20:11;1.00;;;0.70;;
17330;SDS011;8783;52.448;4.638;2023-10-19T07:22:50;0.65;;;0.57;;
17330;SDS011;8783;52.448;4.638;2023-10-19T07:25:46;0.60;;;0.50;;
17330;SDS011;8783;52.448;4.638;2023-10-19T07:28:17;0.70;;;0.60;;
17330;SDS011;8783;52.448;4.638;2023-10-19T07:30:45;1.38;;;0.68;;
17330;SDS011;8783;52.448;4.638;2023-10-19T07:33:11;0.68;;;0.55;;
17330;SDS011;8783;52.448;4.638;2023-10-19T07:35:44;1.05;;;0.65;;
17330;SDS011;8783;52.448;4.638;2023-10-19T07:38:17;1.23;;;0.60;;
17330;SDS011;8783;52.448;4.638;2023-10-19T07:40:46;0.80;;;0.60;;
17330;SDS011;8783;52.448;4.638;2023-10-19T07:43:11;0.98;;;0.60;;
17330;SDS011;8783;52.448;4.638;2023-10-19T07:45:37;1.20;;;0.60;;
17330;SDS011;8783;52.448;4.638;2023-10-19T07:48:03;0.77;;;0.60;;
17330;SDS011;8783;52.448;4.638;2023-10-19T07:50:35;0.60;;;0.50;;
17330;SDS011;8783;52.448;4.638;2023-10-19T07:53:02;0.70;;;0.60;;
17330;SDS011;8783;52.448;4.638;2023-10-19T07:55:28;1.58;;;0.70;;
17330;SDS011;8783;52.448;4.638;2023-10-19T07:57:56;1.90;;;0.75;;
17330;SDS011;8783;52.448;4.638;2023-10-19T08:00:25;0.73;;;0.50;;
17330;SDS011;8783;52.448;4.638;2023-10-19T08:02:51;1.15;;;0.70;;
17330;SDS011;8783;52.448;4.638;2023-10-19T08:05:18;0.95;;;0.40;;
17330;SDS011;8783;52.448;4.638;2023-10-19T08:07:44;0.63;;;0.47;;
17330;SDS011;8783;52.448;4.638;2023-10-19T08:10:17;0.50;;;0.40;;
17330;SDS011;8783;52.448;4.638;2023-10-19T08:12:44;1.13;;;0.60;;
17330;SDS011;8783;52.448;4.638;2023-10-19T08:15:12;0.95;;;0.50;;
17330;SDS011;8783;52.448;4.638;2023-10-19T08:17:49;0.50;;;0.50;;
17330;SDS011;8783;52.448;4.638;2023-10-19T08:20:18;1.00;;;0.68;;
17330;SDS011;8783;52.448;4.638;2023-10-19T08:22:56;0.50;;;0.50;;
17330;SDS011;8783;52.448;4.638;2023-10-19T08:25:23;0.98;;;0.50;;
17330;SDS011;8783;52.448;4.638;2023-10-19T08:27:49;1.10;;;0.47;;
17330;SDS011;8783;52.448;4.638;2023-10-19T08:30:16;1.90;;;0.88;;
17330;SDS011;8783;52.448;4.638;2023-10-19T08:32:43;1.08;;;0.63;;
17330;SDS011;8783;52.448;4.638;2023-10-19T08:35:12;1.23;;;0.50;;
17330;SDS011;8783;52.448;4.638;2023-10-19T08:37:39;0.75;;;0.47;;
17330;SDS011;8783;52.448;4.638;2023-10-19T08:40:09;1.23;;;0.60;;
17330;SDS011;8783;52.448;4.638;2023-10-19T08:42:43;1.27;;;0.60;;
17330;SDS011;8783;52.448;4.638;2023-10-19T08:45:13;1.20;;;0.60;;
17330;SDS011;8783;52.448;4.638;2023-10-19T08:47:48;0.52;;;0.43;;
17330;SDS011;8783;52.448;4.638;2023-10-19T08:50:15;0.57;;;0.40;;
17330;SDS011;8783;52.448;4.638;2023-10-19T08:52:41;1.25;;;0.60;;
17330;SDS011;8783;52.448;4.638;2023-10-19T08:55:08;0.82;;;0.50;;
17330;SDS011;8783;52.448;4.638;2023-10-19T08:57:35;0.65;;;0.50;;
17330;SDS011;8783;52.448;4.638;2023-10-19T09:00:01;1.33;;;0.50;;
17330;SDS011;8783;52.448;4.638;2023-10-19T09:02:31;0.90;;;0.57;;
17330;SDS011;8783;52.448;4.638;2023-10-19T09:04:57;0.63;;;0.52;;
17330;SDS011;8783;52.448;4.638;2023-10-19T09:07:25;0.68;;;0.60;;
17330;SDS011;8783;52.448;4.638;2023-10-19T09:09:55;0.47;;;0.47;;
17330;SDS011;8783;52.448;4.638;2023-10-19T09:12:22;1.55;;;0.65;;
17330;SDS011;8783;52.448;4.638;2023-10-19T09:14:48;0.73;;;0.50;;
17330;SDS011;8783;52.448;4.638;2023-10-19T09:17:14;0.80;;;0.47;;
17330;SDS011;8783;52.448;4.638;2023-10-19T09:19:43;1.13;;;0.60;;
17330;SDS011;8783;52.448;4.638;2023-10-19T09:22:12;0.90;;;0.60;;
17330;SDS011;8783;52.448;4.638;2023-10-19T09:24:47;1.10;;;0.60;;
17330;SDS011;8783;52.448;4.638;2023-10-19T09:27:16;2.13;;;0.50;;
17330;SDS011;8783;52.448;4.638;2023-10-19T09:29:42;0.57;;;0.50;;
17330;SDS011;8783;52.448;4.638;2023-10-19T09:32:08;0.77;;;0.57;;
17330;SDS011;8783;52.448;4.638;2023-10-19T09:34:35;1.55;;;0.60;;
17330;SDS011;8783;52.448;4.638;2023-10-19T09:37:01;1.35;;;0.60;;
17330;SDS011;8783;52.448;4.638;2023-10-19T09:39:29;0.60;;;0.50;;
17330;SDS011;8783;52.448;4.638;2023-10-19T09:42:05;1.10;;;0.60;;
17330;SDS011;8783;52.448;4.638;2023-10-19T09:44:39;0.85;;;0.55;;
17330;SDS011;8783;52.448;4.638;2023-10-19T09:47:11;1.38;;;0.52;;
17330;SDS011;8783;52.448;4.638;2023-10-19T09:49:41;1.27;;;0.65;;
17330;SDS011;8783;52.448;4.638;2023-10-19T09:52:08;0.65;;;0.50;;
17330;SDS011;8783;52.448;4.638;2023-10-19T09:55:19;0.98;;;0.50;;
17330;SDS011;8783;52.448;4.638;2023-10-19T09:57:51;0.38;;;0.30;;
17330;SDS011;8783;52.448;4.638;2023-10-19T10:00:27;0.95;;;0.50;;
17330;SDS011;8783;52.448;4.638;2023-10-19T10:02:56;0.70;;;0.40;;
17330;SDS011;8783;52.448;4.638;2023-10-19T10:10:45;1.90;;;0.63;;
17330;SDS011;8783;52.448;4.638;2023-10-19T10:15:53;1.67;;;0.57;;
17330;SDS011;8783;52.448;4.638;2023-10-19T10:18:20;0.57;;;0.50;;
17330;SDS011;8783;52.448;4.638;2023-10-19T10:20:55;0.47;;;0.40;;
17330;SDS011;8783;52.448;4.638;2023-10-19T10:23:44;0.75;;;0.40;;
17330;SDS011;8783;52.448;4.638;2023-10-19T10:26:21;0.60;;;0.40;;
17330;SDS011;8783;52.448;4.638;2023-10-19T10:29:36;0.57;;;0.40;;
17330;SDS011;8783;52.448;4.638;2023-10-19T10:31:48;0.63;;;0.40;;
17330;SDS011;8783;52.448;4.638;2023-10-19T10:37:00;1.23;;;0.50;;
17330;SDS011;8783;52.448;4.638;2023-10-19T10:39:30;0.90;;;0.55;;
17330;SDS011;8783;52.448;4.638;2023-10-19T10:41:57;1.20;;;0.60;;
17330;SDS011;8783;52.448;4.638;2023-10-19T10:47:16;2.25;;;0.70;;
17330;SDS011;8783;52.448;4.638;2023-10-19T10:50:00;0.98;;;0.50;;
17330;SDS011;8783;52.448;4.638;2023-10-19T10:52:30;0.80;;;0.40;;
17330;SDS011;8783;52.448;4.638;2023-10-19T10:55:10;0.73;;;0.50;;
17330;SDS011;8783;52.448;4.638;2023-10-19T10:57:37;0.80;;;0.40;;
17330;SDS011;8783;52.448;4.638;2023-10-19T11:00:07;0.80;;;0.40;;
17330;SDS011;8783;52.448;4.638;2023-10-19T11:02:38;0.45;;;0.40;;
17330;SDS011;8783;52.448;4.638;2023-10-19T11:05:08;1.35;;;0.50;;
17330;SDS011;8783;52.448;4.638;2023-10-19T11:07:37;0.85;;;0.57;;
17330;SDS011;8783;52.448;4.638;2023-10-19T11:10:04;0.68;;;0.45;;
17330;SDS011;8783;52.448;4.638;2023-10-19T11:12:30;1.50;;;0.68;;
17330;SDS011;8783;52.448;4.638;2023-10-19T11:14:57;1.05;;;0.57;;
17330;SDS011;8783;52.448;4.638;2023-10-19T11:17:41;1.02;;;0.52;;
17330;SDS011;8783;52.448;4.638;2023-10-19T11:20:08;1.15;;;0.68;;
17330;SDS011;8783;52.448;4.638;2023-10-19T11:22:47;0.77;;;0.47;;
17330;SDS011;8783;52.448;4.638;2023-10-19T11:25:17;0.95;;;0.60;;
17330;SDS011;8783;52.448;4.638;2023-10-19T11:27:44;1.95;;;0.50;;
17330;SDS011;8783;52.448;4.638;2023-10-19T11:30:10;0.50;;;0.45;;
17330;SDS011;8783;52.448;4.638;2023-10-19T11:32:37;0.93;;;0.60;;
17330;SDS011;8783;52.448;4.638;2023-10-19T11:35:03;1.50;;;0.63;;
17330;SDS011;8783;52.448;4.638;2023-10-19T11:37:29;1.15;;;0.63;;
17330;SDS011;8783;52.448;4.638;2023-10-19T11:39:54;0.57;;;0.40;;
17330;SDS011;8783;52.448;4.638;2023-10-19T11:42:20;1.05;;;0.70;;
17330;SDS011;8783;52.448;4.638;2023-10-19T11:44:45;1.80;;;0.70;;
17330;SDS011;8783;52.448;4.638;2023-10-19T11:47:11;1.25;;;0.68;;
17330;SDS011;8783;52.448;4.638;2023-10-19T11:49:38;0.77;;;0.40;;
17330;SDS011;8783;52.448;4.638;2023-10-19T11:52:07;0.80;;;0.40;;
17330;SDS011;8783;52.448;4.638;2023-10-19T11:54:33;1.27;;;0.60;;
17330;SDS011;8783;52.448;4.638;2023-10-19T11:56:59;2.10;;;0.65;;
17330;SDS011;8783;52.448;4.638;2023-10-19T11:59:25;1.65;;;0.60;;
17330;SDS011;8783;52.448;4.638;2023-10-19T12:01:51;1.25;;;0.40;;
17330;SDS011;8783;52.448;4.638;2023-10-19T12:04:17;1.15;;;0.55;;
17330;SDS011;8783;52.448;4.638;2023-10-19T12:06:43;1.20;;;0.60;;
17330;SDS011;8783;52.448;4.638;2023-10-19T12:09:11;0.60;;;0.45;;
17330;SDS011;8783;52.448;4.638;2023-10-19T12:11:40;1.02;;;0.43;;
17330;SDS011;8783;52.448;4.638;2023-10-19T12:14:06;1.60;;;0.68;;
17330;SDS011;8783;52.448;4.638;2023-10-19T12:16:36;1.17;;;0.50;;
17330;SDS011;8783;52.448;4.638;2023-10-19T12:19:04;2.95;;;0.60;;
17330;SDS011;8783;52.448;4.638;2023-10-19T12:21:29;0.85;;;0.47;;
17330;SDS011;8783;52.448;4.638;2023-10-19T12:23:56;0.90;;;0.43;;
17330;SDS011;8783;52.448;4.638;2023-10-19T12:26:22;0.60;;;0.50;;
17330;SDS011;8783;52.448;4.638;2023-10-19T12:28:48;1.15;;;0.60;;
17330;SDS011;8783;52.448;4.638;2023-10-19T12:31:14;0.88;;;0.60;;
17330;SDS011;8783;52.448;4.638;2023-10-19T12:33:43;1.08;;;0.60;;
17330;SDS011;8783;52.448;4.638;2023-10-19T12:36:09;1.30;;;0.60;;
17330;SDS011;8783;52.448;4.638;2023-10-19T12:38:54;0.60;;;0.47;;
17330;SDS011;8783;52.448;4.638;2023-10-19T12:41:20;1.00;;;0.60;;
17330;SDS011;8783;52.448;4.638;2023-10-19T12:43:46;1.17;;;0.60;;
17330;SDS011;8783;52.448;4.638;2023-10-19T12:46:15;1.00;;;0.50;;
17330;SDS011;8783;52.448;4.638;2023-10-19T12:48:41;1.00;;;0.57;;
17330;SDS011;8783;52.448;4.638;2023-10-19T12:51:07;0.95;;;0.50;;
17330;SDS011;8783;52.448;4.638;2023-10-19T12:53:34;1.23;;;0.50;;
17330;SDS011;8783;52.448;4.638;2023-10-19T12:56:00;0.90;;;0.60;;
17330;SDS011;8783;52.448;4.638;2023-10-19T12:58:25;2.35;;;0.80;;
17330;SDS011;8783;52.448;4.638;2023-10-19T13:00:53;0.52;;;0.43;;
17330;SDS011;8783;52.448;4.638;2023-10-19T13:03:20;0.93;;;0.50;;
17330;SDS011;8783;52.448;4.638;2023-10-19T13:05:47;1.00;;;0.60;;
17330;SDS011;8783;52.448;4.638;2023-10-19T13:08:15;1.08;;;0.65;;
17330;SDS011;8783;52.448;4.638;2023-10-19T13:10:44;1.63;;;0.50;;
17330;SDS011;8783;52.448;4.638;2023-10-19T13:13:12;0.85;;;0.55;;
17330;SDS011;8783;52.448;4.638;2023-10-19T13:15:40;0.70;;;0.40;;
17330;SDS011;8783;52.448;4.638;2023-10-19T13:18:09;0.98;;;0.50;;
17330;SDS011;8783;52.448;4.638;2023-10-19T13:20:36;0.95;;;0.50;;
17330;SDS011;8783;52.448;4.638;2023-10-19T13:23:04;3.08;;;0.57;;
17330;SDS011;8783;52.448;4.638;2023-10-19T13:25:37;1.80;;;0.65;;
17330;SDS011;8783;52.448;4.638;2023-10-19T13:28:10;1.25;;;0.50;;
17330;SDS011;8783;52.448;4.638;2023-10-19T13:30:41;1.90;;;0.73;;
17330;SDS011;8783;52.448;4.638;2023-10-19T13:33:20;1.55;;;0.77;;
17330;SDS011;8783;52.448;4.638;2023-10-19T13:35:46;0.88;;;0.50;;
17330;SDS011;8783;52.448;4.638;2023-10-19T13:38:13;1.48;;;0.75;;
17330;SDS011;8783;52.448;4.638;2023-10-19T13:40:42;1.23;;;0.60;;
17330;SDS011;8783;52.448;4.638;2023-10-19T13:43:09;1.23;;;0.60;;
17330;SDS011;8783;52.448;4.638;2023-10-19T13:45:38;1.15;;;0.50;;
17330;SDS011;8783;52.448;4.638;2023-10-19T13:48:06;0.70;;;0.50;;
17330;SDS011;8783;52.448;4.638;2023-10-19T13:50:33;1.98;;;0.65;;
17330;SDS011;8783;52.448;4.638;2023-10-19T13:53:00;0.80;;;0.60;;
17330;SDS011;8783;52.448;4.638;2023-10-19T13:55:27;1.75;;;0.47;;
17330;SDS011;8783;52.448;4.638;2023-10-19T13:57:53;0.73;;;0.45;;
17330;SDS011;8783;52.448;4.638;2023-10-19T14:00:21;0.88;;;0.47;;
17330;SDS011;8783;52.448;4.638;2023-10-19T14:03:00;1.40;;;0.68;;
17330;SDS011;8783;52.448;4.638;2023-10-19T14:05:27;0.82;;;0.50;;
17330;SDS011;8783;52.448;4.638;2023-10-19T14:07:54;1.13;;;0.60;;
17330;SDS011;8783;52.448;4.638;2023-10-19T14:10:20;0.43;;;0.40;;
17330;SDS011;8783;52.448;4.638;2023-10-19T14:12:47;1.20;;;0.75;;
17330;SDS011;8783;52.448;4.638;2023-10-19T14:17:40;0.88;;;0.60;;
17330;SDS011;8783;52.448;4.638;2023-10-19T14:20:06;1.40;;;0.52;;
17330;SDS011;8783;52.448;4.638;2023-10-19T14:22:37;2.20;;;0.57;;
17330;SDS011;8783;52.448;4.638;2023-10-19T14:25:16;1.50;;;0.57;;
17330;SDS011;8783;52.448;4.638;2023-10-19T14:27:45;0.95;;;0.40;;
17330;SDS011;8783;52.448;4.638;2023-10-19T14:30:16;0.65;;;0.43;;
17330;SDS011;8783;52.448;4.638;2023-10-19T14:32:44;1.05;;;0.60;;
17330;SDS011;8783;52.448;4.638;2023-10-19T14:35:12;1.30;;;0.50;;
17330;SDS011;8783;52.448;4.638;2023-10-19T14:37:40;1.10;;;0.70;;
17330;SDS011;8783;52.448;4.638;2023-10-19T14:42:37;0.80;;;0.60;;
17330;SDS011;8783;52.448;4.638;2023-10-19T14:45:05;1.20;;;0.50;;
17330;SDS011;8783;52.448;4.638;2023-10-19T14:47:37;0.95;;;0.40;;
17330;SDS011;8783;52.448;4.638;2023-10-19T14:50:05;1.50;;;0.50;;
17330;SDS011;8783;52.448;4.638;2023-10-19T14:52:42;1.23;;;0.60;;
17330;SDS011;8783;52.448;4.638;2023-10-19T14:55:13;0.88;;;0.60;;
17330;SDS011;8783;52.448;4.638;2023-10-19T14:57:41;1.38;;;0.60;;
17330;SDS011;8783;52.448;4.638;2023-10-19T15:00:09;1.48;;;0.70;;
17330;SDS011;8783;52.448;4.638;2023-10-19T15:02:51;1.65;;;0.50;;
17330;SDS011;8783;52.448;4.638;2023-10-19T15:05:21;1.30;;;0.60;;
17330;SDS011;8783;52.448;4.638;2023-10-19T15:07:50;2.15;;;0.70;;
17330;SDS011;8783;52.448;4.638;2023-10-19T15:10:17;1.88;;;0.50;;
17330;SDS011;8783;52.448;4.638;2023-10-19T15:12:44;1.05;;;0.60;;
17330;SDS011;8783;52.448;4.638;2023-10-19T15:15:10;0.85;;;0.52;;
17330;SDS011;8783;52.448;4.638;2023-10-19T15:17:45;1.25;;;0.60;;
17330;SDS011;8783;52.448;4.638;2023-10-19T15:20:13;1.48;;;0.50;;
17330;SDS011;8783;52.448;4.638;2023-10-19T15:22:43;1.67;;;0.68;;
17330;SDS011;8783;52.448;4.638;2023-10-19T15:25:10;0.95;;;0.50;;
17330;SDS011;8783;52.448;4.638;2023-10-19T15:27:42;0.75;;;0.50;;
17330;SDS011;8783;52.448;4.638;2023-10-19T15:30:09;1.58;;;0.60;;
17330;SDS011;8783;52.448;4.638;2023-10-19T15:32:36;1.17;;;0.50;;
17330;SDS011;8783;52.448;4.638;2023-10-19T15:35:02;1.50;;;0.60;;
17330;SDS011;8783;52.448;4.638;2023-10-19T15:37:28;1.58;;;0.70;;
17330;SDS011;8783;52.448;4.638;2023-10-19T15:39:54;1.42;;;0.70;;